Aviation Digital Data Service (ADDS)

Output produced by METARs form (1159 UTC 26 March 2019)
found at http://www.aviationweather.gov/metar/data/
 
FNBG 260800Z 00000KT 9999 FEW022 BKN100 27/25 Q1014
TAF FNBG 261100Z 2612/2624 30009KT 9999 FEW015 
     TEMPO 2614/2618 24011KT 9000 SCT018 FEW025CB BKN030 
     BECMG 2619/2621 24006KT
       
FNCA 261100Z 28005KT 9999 SCT020 FEW026CB 30/25 Q1013
TAF FNCA 261100Z 2612/2624 25005KT 9000 FEW012 BKN050 
     PROB30 
     TEMPO 2612/2616 24007KT 6000 RADZ SCT015 FEW018CB BKN030 
     BECMG 2618/2620 22004KT
       
FNDU 260800Z 00000KT 9999 SCT026 25/19 Q1020
TAF FNDU 261100Z 2612/2624 VRB03KT 9000 FEW018 BKN025 
     TEMPO 2612/2616 8000 SCT015 FEW020CB BKN030 
     BECMG 2619/2621 20004KT 9999 SCT018 BKN023
       
FNHU 261100Z 35009KT 8000 VCSH SCT009 BKN070 18/15 Q1024
TAF FNHU 261100Z 2612/2624 18007KT 9000 FEW012 BKN025 
     TEMPO 2612/2616 24007KT 5000 -DZRA SCT015 FEW023CB BKN030 
     BECMG 2621/2623 28004KT
       
FNKU 261100Z 12006KT 9999 BKN030 19/18 Q1023
TAF FNKU 261100Z 2612/2624 18007KT 9000 FEW012 BKN025 
     TEMPO 2613/2617 24007KT 6000 -RADZ SCT015 FEW020CB BKN030 
     BECMG 2620/2622 28005KT
       
FNLU 261100Z 12008KT 9999 FEW018 BKN070 28/24 Q1013
TAF FNLU 261100Z 2612/2718 29008KT 9000 FEW015 BKN040 
     PROB30 
     TEMPO 2613/2617 23007KT 7000 DZRA SCT018 FEW025CB BKN030 
     BECMG 2618/2620 17005KT 
     TEMPO 2701/2705 VRB03KT 8000 FEW015 BKN023
       
FNUE 261100Z 31006KT 9999 SCT030 28/20 Q1020
TAF FNUE 261100Z 2612/2624 32004KT 9000 FEW020 FEW023CB BKN030 
     TEMPO 2612/2616 24005KT 8000 SCT012 BKN040 
     BECMG 2622/2624 19006KT 9999 FEW015 BKN025
       
FNMA 261000Z 26004KT 9999 SCT016 OVC090 22/20 Q1018
TAF FNMA 261100Z 2612/2624 VRB03KT 8000 FEW014 BKN025 
     PROB30 
     TEMPO 2612/2616 5000 RA SCT015 FEW018CB BKN030 
     BECMG 2619/2621 31004KT
       
TAF FNME 261100Z 2612/2624 04006KT 9000 FEW015 BKN040 
     PROB30 
     TEMPO 2613/2617 VRB03KT 7000 RA SCT012 FEW018CB BKN030 
     BECMG 2618/2620 32004KT
       
FNMO 261100Z 26010KT 9999 FEW033 27/20 Q1013
TAF FNMO 261100Z 2612/2624 29012KT 9999 FEW018 
     TEMPO 2612/2616 29010KT CAVOK 
     BECMG 2618/2620 23007KT 9999 FEW015 SCT030
       
FNGI 261100Z 13006KT 9999 FEW012 SCT024 31/13 Q1018
TAF FNGI 261100Z 2612/2624 VRB03KT 9000 SCT012 FEW018CB BKN050 
     BECMG 2618/2620 23009KT
       
FNSA 261100Z 27007KT 9999 SCT100 29/18 Q1017
TAF FNSA 261100Z 2612/2624 30004KT 9000 FEW020 BKN030 
     PROB30 
     TEMPO 2613/2617 24005KT 8000 SCT018 FEW030CB BKN040 
     BECMG 2622/2624 19006KT 8000 FEW015 BKN018
       
FNSO 261100Z VRB02KT 9999 BKN013 FEW016CB ///// Q////
TAF FNSO 261100Z 2612/2624 26005KT 9000 FEW012 FEW018CB BKN050 
     PROB30 
     TEMPO 2612/2616 24007KT 7000 RADZ SCT015 FEW020CB BKN030 
     BECMG 2618/2620 22004KT 5000 -DZ SCT020 BKN025
       
FNSU 261100Z 24005KT 1000 DZ SCT015 OVC050 28/// Q1016
FNUG 261100Z 18006KT 9999 FEW020 BKN080 26/20 Q1017